createdAt,value
2019-02-20T00:00:39.445Z,17.01
2019-02-20T00:01:20.050Z,17.08
2019-02-20T00:02:00.640Z,17.06
2019-02-20T00:02:41.233Z,17.06
2019-02-20T00:03:21.825Z,16.98
2019-02-20T00:04:02.425Z,17.07
2019-02-20T00:04:43.035Z,17.01
2019-02-20T00:05:23.675Z,17.07
2019-02-20T00:06:04.299Z,16.98
2019-02-20T00:06:44.855Z,16.98
2019-02-20T00:07:25.448Z,16.98
2019-02-20T00:08:06.082Z,17.07
2019-02-20T00:08:46.674Z,16.98
2019-02-20T00:09:27.283Z,17.01
2019-02-20T00:10:07.873Z,17
2019-02-20T00:10:48.497Z,17.01
2019-02-20T00:11:29.127Z,16.94
2019-02-20T00:12:09.729Z,17.04
2019-02-20T00:12:50.325Z,16.98
2019-02-20T00:13:30.939Z,17.01
2019-02-20T00:14:11.552Z,16.94
2019-02-20T00:14:52.161Z,16.98
2019-02-20T00:15:32.772Z,16.96
2019-02-20T00:16:13.387Z,17.06
2019-02-20T00:16:54.003Z,16.98
2019-02-20T00:17:34.694Z,16.98
2019-02-20T00:18:15.351Z,17.01
2019-02-20T00:18:55.985Z,17.03
2019-02-20T00:19:36.599Z,16.93
2019-02-20T00:20:17.183Z,17.04
2019-02-20T00:20:57.851Z,16.96
2019-02-20T00:21:38.389Z,16.96
2019-02-20T00:22:19.007Z,17.03
2019-02-20T00:22:59.602Z,16.98
2019-02-20T00:23:40.195Z,17
2019-02-20T00:24:20.777Z,17.04
2019-02-20T00:25:01.379Z,16.97
2019-02-20T00:25:42.062Z,17.04
2019-02-20T00:26:22.680Z,17.01
2019-02-20T00:27:03.294Z,17.04
2019-02-20T00:27:43.911Z,16.98
2019-02-20T00:28:24.503Z,16.97
2019-02-20T00:29:05.091Z,17.04
2019-02-20T00:29:45.669Z,16.96
2019-02-20T00:30:26.277Z,16.98
2019-02-20T00:31:06.866Z,16.91
2019-02-20T00:31:47.471Z,17.04
2019-02-20T00:32:28.049Z,16.96
2019-02-20T00:33:08.649Z,16.93
2019-02-20T00:33:49.243Z,16.96
2019-02-20T00:34:29.833Z,16.93
2019-02-20T00:35:10.430Z,16.98
2019-02-20T00:35:51.051Z,16.96
2019-02-20T00:36:31.645Z,16.94
2019-02-20T00:37:12.277Z,16.98
2019-02-20T00:37:52.885Z,16.93
2019-02-20T00:38:33.511Z,17.04
2019-02-20T00:39:14.107Z,16.96
2019-02-20T00:39:54.703Z,16.93
2019-02-20T00:40:35.380Z,17
2019-02-20T00:41:16.027Z,16.93
2019-02-20T00:41:56.624Z,16.97
2019-02-20T00:42:37.290Z,17
2019-02-20T00:43:17.890Z,16.98
2019-02-20T00:43:58.514Z,16.97
2019-02-20T00:44:39.120Z,16.96
2019-02-20T00:45:19.725Z,16.93
2019-02-20T00:46:00.331Z,17.03
2019-02-20T00:46:40.947Z,17
2019-02-20T00:47:21.545Z,17.03
2019-02-20T00:48:02.156Z,16.97
2019-02-20T00:48:42.747Z,16.96
2019-02-20T00:49:23.341Z,16.97
2019-02-20T00:50:03.992Z,16.97
2019-02-20T00:50:44.585Z,16.93
2019-02-20T00:51:25.195Z,17.06
2019-02-20T00:52:05.838Z,16.93
2019-02-20T00:52:49.755Z,16.93
2019-02-20T00:53:27.084Z,16.98
2019-02-20T00:54:09.326Z,16.96
2019-02-20T00:54:48.361Z,16.89
2019-02-20T00:55:28.941Z,16.88
2019-02-20T00:56:09.575Z,16.93
2019-02-20T00:56:50.199Z,16.94
2019-02-20T00:57:30.831Z,16.93
2019-02-20T00:58:11.471Z,16.94
2019-02-20T00:58:52.091Z,16.97
2019-02-20T00:59:32.702Z,16.96
2019-02-20T01:00:13.318Z,16.91
2019-02-20T01:00:53.918Z,16.97
2019-02-20T01:01:34.557Z,17
2019-02-20T01:02:15.159Z,17
2019-02-20T01:02:55.809Z,16.94
2019-02-20T01:03:36.453Z,17
2019-02-20T01:04:17.093Z,16.94
2019-02-20T01:04:57.710Z,16.91
2019-02-20T01:05:38.349Z,16.94
2019-02-20T01:06:18.973Z,16.93
2019-02-20T01:06:59.627Z,16.96
2019-02-20T01:07:40.257Z,16.97
2019-02-20T01:08:20.861Z,16.93
2019-02-20T01:09:01.471Z,17
2019-02-20T01:09:42.051Z,16.96
2019-02-20T01:10:22.656Z,17.03
2019-02-20T01:11:03.254Z,16.96
2019-02-20T01:11:43.851Z,16.93
2019-02-20T01:12:24.455Z,16.94
2019-02-20T01:13:05.095Z,16.89
2019-02-20T01:13:45.680Z,16.96
2019-02-20T01:14:26.281Z,16.91
2019-02-20T01:15:06.900Z,16.89
2019-02-20T01:15:47.511Z,17
2019-02-20T01:16:28.135Z,17
2019-02-20T01:17:08.803Z,16.89
2019-02-20T01:17:49.413Z,16.91
2019-02-20T01:18:30.057Z,16.96
2019-02-20T01:19:10.657Z,16.96
2019-02-20T01:19:51.335Z,17
2019-02-20T01:20:31.956Z,16.93
2019-02-20T01:21:12.617Z,16.91
2019-02-20T01:21:53.253Z,16.96
2019-02-20T01:22:33.883Z,17
2019-02-20T01:23:14.525Z,16.97
2019-02-20T01:23:55.112Z,16.94
2019-02-20T01:24:35.715Z,16.94
2019-02-20T01:25:16.323Z,16.96
2019-02-20T01:25:56.987Z,16.89
2019-02-20T01:26:37.609Z,16.96
2019-02-20T01:27:19.016Z,16.94
2019-02-20T01:27:59.641Z,16.96
2019-02-20T01:28:40.261Z,16.98
2019-02-20T01:29:20.871Z,16.93
2019-02-20T01:30:01.522Z,16.96
2019-02-20T01:30:42.129Z,16.97
2019-02-20T01:31:22.743Z,16.96
2019-02-20T01:32:03.381Z,16.96
2019-02-20T01:32:44.003Z,16.96
2019-02-20T01:33:24.612Z,16.98
2019-02-20T01:34:05.243Z,16.97
2019-02-20T01:34:45.836Z,16.97
2019-02-20T01:35:26.479Z,17
2019-02-20T01:36:07.129Z,16.88
2019-02-20T01:36:47.735Z,16.96
2019-02-20T01:37:28.389Z,16.98
2019-02-20T01:38:08.991Z,16.97
2019-02-20T01:38:49.597Z,16.98
2019-02-20T01:39:30.209Z,16.89
2019-02-20T01:40:10.841Z,16.91
2019-02-20T01:40:51.493Z,16.96
2019-02-20T01:41:32.057Z,16.96
2019-02-20T01:42:12.677Z,16.97
2019-02-20T01:42:53.290Z,17
2019-02-20T01:43:33.917Z,16.93
2019-02-20T01:44:14.571Z,16.97
2019-02-20T01:44:55.181Z,16.91
2019-02-20T01:45:35.787Z,16.96
2019-02-20T01:46:16.391Z,16.89
2019-02-20T01:46:57.009Z,16.88
2019-02-20T01:47:37.683Z,16.93
2019-02-20T01:48:18.275Z,16.98
2019-02-20T01:48:58.873Z,16.97
2019-02-20T01:49:39.479Z,16.93
2019-02-20T01:50:20.061Z,16.96
2019-02-20T01:51:00.641Z,16.89
2019-02-20T01:51:41.271Z,16.97
2019-02-20T01:52:21.891Z,16.88
2019-02-20T01:53:09.970Z,16.96
2019-02-20T01:53:43.069Z,16.98
2019-02-20T01:54:23.700Z,16.86
2019-02-20T01:55:04.291Z,16.97
2019-02-20T01:55:44.915Z,16.88
2019-02-20T01:56:25.493Z,16.94
2019-02-20T01:57:06.091Z,16.91
2019-02-20T01:57:46.687Z,16.93
2019-02-20T01:58:27.291Z,16.91
2019-02-20T01:59:07.877Z,16.89
2019-02-20T01:59:48.486Z,16.98
2019-02-20T02:00:29.075Z,16.86
2019-02-20T02:01:09.693Z,16.88
2019-02-20T02:01:50.370Z,16.86
2019-02-20T02:02:30.939Z,16.93
2019-02-20T02:03:11.534Z,16.88
2019-02-20T02:03:52.121Z,16.91
2019-02-20T02:04:32.723Z,16.85
2019-02-20T02:05:15.565Z,16.86
2019-02-20T02:05:54.012Z,16.88
2019-02-20T02:06:34.615Z,16.88
2019-02-20T02:07:15.193Z,16.94
2019-02-20T02:07:55.777Z,16.86
2019-02-20T02:08:36.377Z,16.93
2019-02-20T02:09:16.971Z,16.88
2019-02-20T02:09:57.585Z,16.91
2019-02-20T02:10:38.191Z,16.86
2019-02-20T02:11:18.776Z,16.89
2019-02-20T02:11:59.359Z,16.91
2019-02-20T02:12:39.949Z,16.88
2019-02-20T02:13:20.585Z,16.91
2019-02-20T02:14:01.185Z,16.86
2019-02-20T02:14:41.778Z,16.88
2019-02-20T02:15:22.385Z,16.85
2019-02-20T02:16:02.981Z,16.88
2019-02-20T02:16:43.587Z,16.88
2019-02-20T02:17:24.202Z,16.88
2019-02-20T02:18:04.773Z,16.94
2019-02-20T02:18:45.395Z,16.89
2019-02-20T02:19:25.987Z,16.88
2019-02-20T02:20:06.573Z,16.93
2019-02-20T02:20:47.163Z,16.88
2019-02-20T02:21:27.773Z,16.88
2019-02-20T02:22:08.355Z,16.91
2019-02-20T02:22:48.971Z,16.89
2019-02-20T02:23:29.571Z,16.93
2019-02-20T02:24:10.182Z,16.88
2019-02-20T02:24:50.774Z,16.86
2019-02-20T02:25:31.357Z,16.91
2019-02-20T02:26:11.943Z,16.88
2019-02-20T02:26:52.557Z,16.94
2019-02-20T02:27:33.173Z,16.85
2019-02-20T02:28:13.771Z,16.83
2019-02-20T02:28:54.353Z,16.86
2019-02-20T02:29:34.940Z,16.83
2019-02-20T02:30:15.536Z,16.91
2019-02-20T02:30:56.182Z,16.94
2019-02-20T02:31:36.759Z,16.91
2019-02-20T02:32:17.349Z,16.93
2019-02-20T02:32:57.956Z,16.89
2019-02-20T02:33:38.542Z,16.89
2019-02-20T02:34:19.125Z,16.91
2019-02-20T02:34:59.717Z,16.91
2019-02-20T02:35:40.305Z,16.91
2019-02-20T02:36:20.908Z,16.93
2019-02-20T02:37:01.508Z,16.88
2019-02-20T02:37:42.090Z,16.91
2019-02-20T02:38:22.671Z,16.91
2019-02-20T02:39:03.255Z,16.91
2019-02-20T02:39:43.859Z,16.85
2019-02-20T02:40:24.464Z,16.91
2019-02-20T02:41:05.077Z,16.91
2019-02-20T02:41:45.703Z,16.91
2019-02-20T02:42:26.279Z,16.91
2019-02-20T02:43:06.871Z,16.89
2019-02-20T02:43:47.472Z,16.83
2019-02-20T02:44:28.128Z,16.83
2019-02-20T02:45:08.742Z,16.88
2019-02-20T02:45:49.333Z,16.88
2019-02-20T02:46:29.949Z,16.94
2019-02-20T02:47:10.528Z,16.91
2019-02-20T02:47:51.127Z,16.89
2019-02-20T02:48:31.717Z,16.93
2019-02-20T02:49:12.337Z,16.86
2019-02-20T02:49:52.919Z,16.93
2019-02-20T02:50:33.503Z,16.83
2019-02-20T02:51:14.100Z,16.91
2019-02-20T02:51:54.696Z,16.88
2019-02-20T02:52:35.326Z,16.86
2019-02-20T02:53:15.903Z,16.88
2019-02-20T02:53:56.504Z,16.89
2019-02-20T02:54:37.116Z,16.88
2019-02-20T02:55:17.737Z,16.88
2019-02-20T02:55:58.361Z,16.88
2019-02-20T02:56:38.970Z,16.96
2019-02-20T02:57:19.570Z,16.91
2019-02-20T02:58:00.162Z,16.93
2019-02-20T02:58:40.761Z,16.86
2019-02-20T02:59:21.364Z,16.93
2019-02-20T03:00:01.956Z,16.89
2019-02-20T03:00:42.551Z,16.86
2019-02-20T03:01:23.137Z,16.86
2019-02-20T03:02:03.727Z,16.89
2019-02-20T03:02:44.336Z,16.85
2019-02-20T03:03:24.946Z,16.93
2019-02-20T03:04:05.535Z,16.91
2019-02-20T03:04:46.159Z,16.91
2019-02-20T03:05:26.770Z,16.89
2019-02-20T03:06:07.371Z,16.89
2019-02-20T03:06:47.989Z,16.88
2019-02-20T03:07:28.581Z,16.93
2019-02-20T03:08:09.179Z,16.89
2019-02-20T03:08:49.801Z,16.86
2019-02-20T03:09:30.398Z,16.88
2019-02-20T03:10:11.002Z,16.83
2019-02-20T03:10:51.666Z,16.82
2019-02-20T03:11:32.249Z,16.89
2019-02-20T03:12:12.854Z,16.86
2019-02-20T03:12:53.442Z,16.83
2019-02-20T03:13:34.057Z,16.88
2019-02-20T03:14:14.658Z,16.88
2019-02-20T03:14:55.243Z,16.89
2019-02-20T03:15:35.864Z,16.88
2019-02-20T03:16:16.514Z,16.88
2019-02-20T03:16:57.131Z,16.88
2019-02-20T03:17:37.718Z,16.89
2019-02-20T03:18:18.307Z,16.86
2019-02-20T03:18:58.890Z,16.85
2019-02-20T03:19:39.492Z,16.88
2019-02-20T03:20:20.090Z,16.86
2019-02-20T03:21:00.729Z,16.86
2019-02-20T03:21:41.329Z,16.86
2019-02-20T03:22:21.927Z,16.83
2019-02-20T03:23:02.524Z,16.86
2019-02-20T03:23:43.103Z,16.93
2019-02-20T03:24:23.685Z,16.86
2019-02-20T03:25:04.297Z,16.91
2019-02-20T03:25:44.896Z,16.89
2019-02-20T03:26:25.490Z,16.91
2019-02-20T03:27:06.127Z,16.86
2019-02-20T03:27:46.709Z,16.94
2019-02-20T03:28:27.311Z,16.89
2019-02-20T03:29:07.929Z,16.88
2019-02-20T03:29:48.528Z,16.86
2019-02-20T03:30:29.146Z,16.81
2019-02-20T03:31:09.724Z,16.88
2019-02-20T03:31:50.366Z,16.83
2019-02-20T03:32:30.960Z,16.89
2019-02-20T03:33:11.544Z,16.91
2019-02-20T03:33:52.142Z,16.89
2019-02-20T03:34:32.750Z,16.89
2019-02-20T03:35:13.356Z,16.89
2019-02-20T03:35:53.981Z,16.89
2019-02-20T03:36:34.590Z,16.86
2019-02-20T03:37:15.190Z,16.88
2019-02-20T03:37:55.779Z,16.91
2019-02-20T03:38:36.374Z,16.89
2019-02-20T03:39:17.025Z,16.86
2019-02-20T03:39:57.633Z,16.94
2019-02-20T03:40:38.328Z,16.89
2019-02-20T03:41:18.940Z,16.89
2019-02-20T03:41:59.550Z,16.83
2019-02-20T03:42:40.151Z,16.86
2019-02-20T03:43:20.761Z,16.88
2019-02-20T03:44:01.390Z,16.91
2019-02-20T03:44:41.973Z,16.88
2019-02-20T03:45:22.558Z,16.86
2019-02-20T03:46:03.146Z,16.89
2019-02-20T03:46:43.771Z,16.89
2019-02-20T03:47:24.373Z,16.86
2019-02-20T03:48:04.968Z,16.82
2019-02-20T03:48:45.569Z,16.83
2019-02-20T03:49:26.143Z,16.83
2019-02-20T03:50:06.750Z,16.94
2019-02-20T03:50:47.341Z,16.86
2019-02-20T03:51:27.921Z,16.94
2019-02-20T03:52:08.550Z,16.86
2019-02-20T03:52:49.184Z,16.85
2019-02-20T03:53:29.775Z,16.94
2019-02-20T03:54:10.370Z,16.86
2019-02-20T03:54:50.958Z,16.86
2019-02-20T03:55:31.563Z,16.93
2019-02-20T03:56:12.139Z,16.85
2019-02-20T03:56:52.757Z,16.88
2019-02-20T03:57:33.367Z,16.94
2019-02-20T03:58:13.974Z,16.88
2019-02-20T03:58:54.574Z,16.88
2019-02-20T03:59:35.172Z,16.94
2019-02-20T04:00:15.778Z,16.86
2019-02-20T04:00:56.371Z,16.86
2019-02-20T04:01:36.985Z,16.86
2019-02-20T04:02:17.598Z,16.88
2019-02-20T04:02:58.183Z,16.86
2019-02-20T04:03:38.827Z,16.89
2019-02-20T04:04:19.403Z,16.83
2019-02-20T04:04:59.993Z,16.88
2019-02-20T04:05:40.592Z,16.88
2019-02-20T04:06:21.209Z,16.89
2019-02-20T04:07:01.798Z,16.91
2019-02-20T04:07:42.404Z,16.91
2019-02-20T04:08:23.008Z,16.89
2019-02-20T04:09:03.604Z,16.88
2019-02-20T04:09:44.214Z,16.86
2019-02-20T04:10:24.810Z,16.89
2019-02-20T04:11:05.424Z,16.89
2019-02-20T04:11:46.018Z,16.94
2019-02-20T04:12:26.624Z,16.93
2019-02-20T04:13:07.266Z,16.86
2019-02-20T04:13:47.871Z,16.83
2019-02-20T04:14:28.504Z,16.86
2019-02-20T04:15:09.107Z,16.86
2019-02-20T04:15:49.692Z,16.94
2019-02-20T04:16:30.295Z,16.97
2019-02-20T04:17:10.920Z,16.85
2019-02-20T04:17:51.515Z,16.88
2019-02-20T04:18:32.164Z,16.91
2019-02-20T04:19:12.737Z,16.94
2019-02-20T04:19:53.355Z,16.94
2019-02-20T04:20:33.954Z,16.86
2019-02-20T04:21:14.603Z,16.79
2019-02-20T04:21:55.204Z,16.94
2019-02-20T04:22:35.804Z,16.97
2019-02-20T04:23:16.408Z,16.88
2019-02-20T04:24:02.150Z,16.97
2019-02-20T04:24:37.633Z,16.89
2019-02-20T04:25:18.251Z,16.85
2019-02-20T04:25:58.863Z,16.89
2019-02-20T04:26:39.475Z,16.88
2019-02-20T04:27:20.081Z,16.91
2019-02-20T04:28:00.688Z,16.91
2019-02-20T04:28:41.294Z,16.91
2019-02-20T04:29:21.917Z,16.94
2019-02-20T04:30:02.510Z,16.83
2019-02-20T04:30:43.123Z,16.85
2019-02-20T04:31:23.749Z,16.86
2019-02-20T04:32:04.390Z,16.88
2019-02-20T04:32:44.988Z,16.85
2019-02-20T04:33:25.586Z,16.86
2019-02-20T04:34:06.196Z,16.86
2019-02-20T04:34:46.786Z,16.86
2019-02-20T04:35:27.414Z,16.91
2019-02-20T04:36:08.025Z,16.85
2019-02-20T04:36:48.638Z,16.85
2019-02-20T04:37:29.237Z,16.91
2019-02-20T04:38:09.833Z,16.88
2019-02-20T04:38:50.457Z,16.89
2019-02-20T04:39:31.056Z,16.91
2019-02-20T04:40:11.667Z,16.93
2019-02-20T04:40:52.302Z,16.94
2019-02-20T04:41:32.914Z,16.89
2019-02-20T04:42:13.526Z,16.83
2019-02-20T04:42:54.124Z,16.89
2019-02-20T04:43:34.714Z,16.89
2019-02-20T04:44:15.320Z,16.91
2019-02-20T04:44:55.940Z,16.93
2019-02-20T04:45:36.530Z,16.86
2019-02-20T04:46:17.144Z,16.86
2019-02-20T04:46:57.752Z,16.91
2019-02-20T04:47:38.353Z,16.86
2019-02-20T04:48:18.974Z,16.89
2019-02-20T04:48:59.588Z,16.83
2019-02-20T04:49:40.186Z,16.93
2019-02-20T04:50:20.858Z,16.83
2019-02-20T04:51:01.499Z,16.91
2019-02-20T04:51:42.092Z,16.89
2019-02-20T04:52:22.712Z,16.91
2019-02-20T04:53:03.318Z,16.88
2019-02-20T04:53:43.930Z,16.94
2019-02-20T04:54:24.531Z,16.86
2019-02-20T04:55:05.117Z,16.88
2019-02-20T04:55:45.724Z,16.86
2019-02-20T04:56:26.334Z,16.93
2019-02-20T04:57:06.928Z,16.86
2019-02-20T04:57:47.550Z,16.89
2019-02-20T04:58:28.166Z,16.96
2019-02-20T04:59:08.778Z,16.88
2019-02-20T04:59:49.393Z,16.88
2019-02-20T05:00:29.999Z,16.89
2019-02-20T05:01:10.594Z,16.88
2019-02-20T05:01:51.217Z,16.86
2019-02-20T05:02:31.827Z,16.89
2019-02-20T05:03:12.453Z,16.89
2019-02-20T05:03:53.062Z,16.96
2019-02-20T05:04:33.655Z,16.97
2019-02-20T05:05:14.269Z,16.94
2019-02-20T05:05:54.851Z,16.86
2019-02-20T05:06:35.456Z,16.93
2019-02-20T05:07:16.051Z,16.82
2019-02-20T05:07:56.667Z,16.91
2019-02-20T05:08:37.277Z,16.86
2019-02-20T05:09:17.893Z,16.89
2019-02-20T05:09:58.481Z,16.88
2019-02-20T05:10:39.092Z,16.91
2019-02-20T05:11:19.693Z,16.89
2019-02-20T05:12:00.311Z,16.75
2019-02-20T05:12:40.914Z,16.89
2019-02-20T05:13:21.532Z,16.82
2019-02-20T05:14:02.125Z,16.86
2019-02-20T05:14:42.717Z,16.79
2019-02-20T05:15:23.337Z,16.89
2019-02-20T05:16:03.935Z,16.81
2019-02-20T05:16:44.551Z,16.91
2019-02-20T05:17:25.163Z,16.79
2019-02-20T05:18:05.767Z,16.85
2019-02-20T05:18:46.384Z,16.85
2019-02-20T05:19:26.968Z,16.91
2019-02-20T05:20:07.581Z,16.88
2019-02-20T05:20:48.172Z,16.89
2019-02-20T05:21:28.764Z,16.85
2019-02-20T05:22:09.365Z,16.85
2019-02-20T05:22:49.961Z,16.89
2019-02-20T05:23:30.571Z,16.86
2019-02-20T05:24:11.172Z,16.91
2019-02-20T05:24:51.788Z,16.82
2019-02-20T05:25:32.417Z,16.89
2019-02-20T05:26:13.012Z,16.85
2019-02-20T05:26:53.622Z,16.79
2019-02-20T05:27:34.217Z,16.89
2019-02-20T05:28:14.817Z,16.88
2019-02-20T05:28:55.428Z,16.86
2019-02-20T05:29:36.021Z,16.82
2019-02-20T05:30:16.647Z,16.76
2019-02-20T05:30:57.234Z,16.86
2019-02-20T05:31:37.840Z,16.82
2019-02-20T05:32:18.434Z,16.79
2019-02-20T05:32:59.027Z,16.82
2019-02-20T05:33:39.629Z,16.91
2019-02-20T05:34:20.227Z,16.83
2019-02-20T05:35:00.843Z,16.85
2019-02-20T05:35:41.448Z,16.91
2019-02-20T05:36:22.061Z,16.89
2019-02-20T05:37:02.666Z,16.86
2019-02-20T05:37:43.283Z,16.91
2019-02-20T05:38:23.878Z,16.88
2019-02-20T05:39:04.487Z,16.81
2019-02-20T05:39:45.093Z,16.91
2019-02-20T05:40:25.714Z,16.85
2019-02-20T05:41:06.327Z,16.94
2019-02-20T05:41:46.920Z,16.91
2019-02-20T05:42:27.519Z,16.89
2019-02-20T05:43:08.135Z,16.91
2019-02-20T05:43:48.744Z,16.89
2019-02-20T05:44:29.351Z,16.86
2019-02-20T05:45:09.952Z,16.79
2019-02-20T05:45:50.560Z,16.83
2019-02-20T05:46:31.157Z,16.79
2019-02-20T05:47:11.760Z,16.78
2019-02-20T05:47:52.365Z,16.88
2019-02-20T05:48:32.973Z,16.81
2019-02-20T05:49:13.591Z,16.86
2019-02-20T05:49:54.178Z,16.85
2019-02-20T05:50:34.783Z,16.78
2019-02-20T05:51:15.397Z,16.78
2019-02-20T05:51:56.005Z,16.89
2019-02-20T05:52:36.619Z,16.82
2019-02-20T05:53:17.244Z,16.81
2019-02-20T05:53:57.837Z,16.83
2019-02-20T05:54:38.454Z,16.91
2019-02-20T05:55:19.063Z,16.76
2019-02-20T05:55:59.678Z,16.79
2019-02-20T05:56:40.293Z,16.78
2019-02-20T05:57:20.899Z,16.93
2019-02-20T05:58:01.501Z,16.85
2019-02-20T05:58:42.104Z,16.75
2019-02-20T05:59:22.705Z,16.88
2019-02-20T06:00:03.321Z,16.75
2019-02-20T06:00:43.914Z,16.85
2019-02-20T06:01:24.523Z,16.78
2019-02-20T06:02:05.142Z,16.83
2019-02-20T06:02:45.762Z,16.78
2019-02-20T06:03:26.346Z,16.79
2019-02-20T06:04:06.965Z,16.86
2019-02-20T06:04:47.571Z,16.78
2019-02-20T06:05:28.209Z,16.81
2019-02-20T06:06:08.817Z,16.75
2019-02-20T06:06:49.456Z,16.81
2019-02-20T06:07:30.105Z,16.85
2019-02-20T06:08:10.739Z,16.78
2019-02-20T06:08:51.324Z,16.82
2019-02-20T06:09:31.933Z,16.82
2019-02-20T06:10:12.584Z,16.76
2019-02-20T06:10:53.204Z,16.79
2019-02-20T06:11:33.823Z,16.79
2019-02-20T06:12:14.427Z,16.79
2019-02-20T06:12:55.026Z,16.81
2019-02-20T06:13:35.616Z,16.78
2019-02-20T06:14:16.211Z,16.83
2019-02-20T06:14:56.820Z,16.91
2019-02-20T06:15:37.419Z,16.86
2019-02-20T06:16:18.009Z,16.91
2019-02-20T06:16:58.621Z,16.88
2019-02-20T06:17:39.227Z,16.82
2019-02-20T06:18:19.865Z,16.94
2019-02-20T06:19:00.461Z,16.85
2019-02-20T06:19:41.071Z,16.85
2019-02-20T06:20:21.689Z,16.85
2019-02-20T06:21:02.292Z,16.86
2019-02-20T06:21:42.886Z,16.81
2019-02-20T06:22:23.477Z,16.78
2019-02-20T06:23:04.085Z,16.83
2019-02-20T06:23:44.693Z,16.82
2019-02-20T06:24:25.279Z,16.86
2019-02-20T06:25:05.881Z,16.78
2019-02-20T06:25:46.488Z,16.79
2019-02-20T06:26:27.159Z,16.81
2019-02-20T06:27:08.000Z,16.86
2019-02-20T06:27:48.350Z,16.79
2019-02-20T06:28:28.980Z,16.89
2019-02-20T06:29:09.609Z,16.86
2019-02-20T06:29:50.213Z,16.76
2019-02-20T06:30:30.805Z,16.89
2019-02-20T06:31:11.408Z,16.81
2019-02-20T06:31:52.060Z,16.91
2019-02-20T06:32:32.659Z,16.91
2019-02-20T06:33:13.285Z,16.88
2019-02-20T06:33:53.919Z,16.89
2019-02-20T06:34:34.529Z,16.96
2019-02-20T06:35:15.147Z,16.85
2019-02-20T06:35:55.758Z,16.96
2019-02-20T06:36:36.359Z,16.86
2019-02-20T06:37:16.983Z,16.91
2019-02-20T06:37:57.592Z,16.94
2019-02-20T06:38:38.224Z,16.86
2019-02-20T06:39:18.797Z,16.94
2019-02-20T06:39:59.398Z,16.88
2019-02-20T06:40:40.014Z,16.85
2019-02-20T06:41:20.610Z,16.85
2019-02-20T06:42:01.205Z,16.79
2019-02-20T06:42:41.806Z,16.79
2019-02-20T06:43:22.385Z,16.93
2019-02-20T06:44:03.011Z,16.81
2019-02-20T06:44:43.627Z,16.86
2019-02-20T06:45:24.258Z,16.78
2019-02-20T06:46:04.917Z,16.86
2019-02-20T06:46:45.504Z,16.82
2019-02-20T06:47:26.111Z,16.81
2019-02-20T06:48:06.711Z,16.78
2019-02-20T06:48:47.316Z,16.88
2019-02-20T06:49:27.918Z,16.76
2019-02-20T06:50:08.529Z,16.83
2019-02-20T06:50:49.127Z,16.85
2019-02-20T06:51:29.759Z,16.75
2019-02-20T06:52:10.346Z,16.85
2019-02-20T06:52:50.957Z,16.82
2019-02-20T06:53:31.566Z,16.83
2019-02-20T06:54:12.156Z,16.85
2019-02-20T06:54:54.044Z,16.75
2019-02-20T06:55:33.397Z,16.79
2019-02-20T06:56:14.001Z,16.91
2019-02-20T06:56:54.604Z,16.81
2019-02-20T06:57:35.245Z,16.94
2019-02-20T06:58:15.846Z,16.89
2019-02-20T06:58:56.489Z,16.86
2019-02-20T06:59:37.136Z,16.94
2019-02-20T07:00:17.779Z,16.89
2019-02-20T07:00:58.466Z,16.91
2019-02-20T07:01:39.032Z,16.96
2019-02-20T07:02:19.627Z,16.91
2019-02-20T07:03:00.250Z,16.96
2019-02-20T07:03:40.852Z,16.88
2019-02-20T07:04:21.457Z,16.83
2019-02-20T07:05:02.047Z,16.86
2019-02-20T07:05:42.650Z,16.86
2019-02-20T07:06:23.258Z,16.96
2019-02-20T07:07:03.867Z,16.88
2019-02-20T07:07:44.470Z,16.88
2019-02-20T07:08:25.072Z,16.79
2019-02-20T07:09:05.674Z,16.96
2019-02-20T07:09:46.296Z,16.85
2019-02-20T07:10:26.861Z,16.89
2019-02-20T07:11:07.518Z,16.82
2019-02-20T07:11:48.105Z,16.88
2019-02-20T07:12:28.683Z,16.86
2019-02-20T07:13:09.293Z,16.85
2019-02-20T07:13:49.931Z,16.88
2019-02-20T07:14:30.535Z,16.91
2019-02-20T07:15:11.159Z,16.88
2019-02-20T07:15:51.748Z,16.91
2019-02-20T07:16:32.355Z,16.88
2019-02-20T07:17:12.975Z,16.88
2019-02-20T07:17:53.584Z,16.85
2019-02-20T07:18:34.193Z,16.89
2019-02-20T07:19:14.794Z,16.85
2019-02-20T07:19:55.389Z,16.91
2019-02-20T07:20:36.012Z,16.83
2019-02-20T07:21:16.621Z,16.88
2019-02-20T07:21:57.220Z,16.86
2019-02-20T07:22:37.847Z,16.89
2019-02-20T07:23:18.445Z,16.94
2019-02-20T07:23:59.045Z,16.88
2019-02-20T07:24:39.651Z,16.91
2019-02-20T07:25:20.256Z,16.88
2019-02-20T07:26:00.899Z,16.91
2019-02-20T07:26:41.499Z,16.89
2019-02-20T07:27:22.111Z,16.89
2019-02-20T07:28:02.704Z,16.85
2019-02-20T07:28:43.322Z,16.86
2019-02-20T07:29:23.925Z,16.91
2019-02-20T07:30:04.529Z,16.88
2019-02-20T07:30:45.133Z,16.89
2019-02-20T07:31:25.725Z,16.88
2019-02-20T07:32:06.309Z,16.89
2019-02-20T07:32:46.923Z,16.86
2019-02-20T07:33:27.547Z,16.88
2019-02-20T07:34:08.153Z,16.85
2019-02-20T07:34:48.794Z,16.91
2019-02-20T07:35:29.371Z,16.88
2019-02-20T07:36:09.983Z,16.94
2019-02-20T07:36:50.581Z,16.86
2019-02-20T07:37:31.203Z,16.83
2019-02-20T07:38:11.789Z,16.89
2019-02-20T07:38:52.385Z,16.86
2019-02-20T07:39:32.991Z,16.89
2019-02-20T07:40:13.607Z,16.88
2019-02-20T07:40:54.205Z,16.88
2019-02-20T07:41:34.799Z,17.01
2019-02-20T07:42:15.406Z,16.96
2019-02-20T07:42:56.013Z,16.98
2019-02-20T07:43:36.604Z,16.93
2019-02-20T07:44:17.213Z,17
2019-02-20T07:44:57.818Z,16.91
2019-02-20T07:45:38.411Z,16.93
2019-02-20T07:46:19.017Z,16.96
2019-02-20T07:46:59.737Z,16.91
2019-02-20T07:47:40.337Z,16.96
2019-02-20T07:48:21.009Z,16.96
2019-02-20T07:49:01.597Z,16.93
2019-02-20T07:49:42.199Z,16.94
2019-02-20T07:50:22.815Z,17
2019-02-20T07:51:03.486Z,16.96
2019-02-20T07:51:44.088Z,16.94
2019-02-20T07:52:24.743Z,16.94
2019-02-20T07:53:05.373Z,16.98
2019-02-20T07:53:45.981Z,16.91
2019-02-20T07:54:26.586Z,16.94
2019-02-20T07:55:13.112Z,17.03
2019-02-20T07:55:47.802Z,16.93
2019-02-20T07:56:28.412Z,16.93
2019-02-20T07:57:09.045Z,16.98
2019-02-20T07:57:49.659Z,16.97
2019-02-20T07:58:30.267Z,17.01
2019-02-20T07:59:10.865Z,17
2019-02-20T07:59:51.469Z,16.98
2019-02-20T08:00:32.065Z,16.98
2019-02-20T08:01:12.707Z,17.01
2019-02-20T08:01:53.321Z,17.14
2019-02-20T08:02:33.923Z,17.08
2019-02-20T08:03:14.526Z,17.12
2019-02-20T08:03:55.135Z,17.07
2019-02-20T08:04:35.735Z,17.12
2019-02-20T08:05:16.345Z,17.03
2019-02-20T08:05:56.933Z,17.03
2019-02-20T08:06:37.531Z,17.12
2019-02-20T08:07:18.141Z,17.11
2019-02-20T08:07:58.749Z,17.08
2019-02-20T08:08:39.351Z,17.06
2019-02-20T08:09:19.957Z,17.06
2019-02-20T08:10:00.557Z,17.07
2019-02-20T08:10:41.157Z,17.12
2019-02-20T08:11:21.735Z,17.08
2019-02-20T08:12:02.327Z,17.04
2019-02-20T08:12:42.923Z,17.08
2019-02-20T08:13:23.540Z,17.06
2019-02-20T08:14:04.137Z,17.06
2019-02-20T08:14:44.733Z,17.11
2019-02-20T08:15:25.339Z,17
2019-02-20T08:16:05.955Z,17.08
2019-02-20T08:16:52.166Z,17.01
2019-02-20T08:17:27.167Z,17.04
2019-02-20T08:18:07.743Z,17.08
2019-02-20T08:18:48.369Z,16.98
2019-02-20T08:19:28.997Z,17.06
2019-02-20T08:20:09.623Z,16.98
2019-02-20T08:20:50.223Z,17
2019-02-20T08:21:30.825Z,16.96
2019-02-20T08:22:11.445Z,17.07
2019-02-20T08:22:52.037Z,17.01
2019-02-20T08:23:32.631Z,16.97
2019-02-20T08:24:13.241Z,17.04
2019-02-20T08:24:53.847Z,16.98
2019-02-20T08:25:34.457Z,16.98
2019-02-20T08:26:15.068Z,16.98
2019-02-20T08:26:55.679Z,17.01
2019-02-20T08:27:36.267Z,17
2019-02-20T08:28:16.870Z,17.11
2019-02-20T08:28:57.475Z,17
2019-02-20T08:29:38.066Z,17.03
2019-02-20T08:30:18.688Z,17.08
2019-02-20T08:30:59.295Z,17.14
2019-02-20T08:31:39.905Z,17.06
2019-02-20T08:32:20.516Z,17.08
2019-02-20T08:33:01.109Z,17.04
2019-02-20T08:33:41.713Z,17.01
2019-02-20T08:34:22.347Z,17.08
2019-02-20T08:35:03.046Z,17
2019-02-20T08:35:43.659Z,16.98
2019-02-20T08:36:24.277Z,17.08
2019-02-20T08:37:04.906Z,17.01
2019-02-20T08:37:45.519Z,17.07
2019-02-20T08:38:26.116Z,16.98
2019-02-20T08:39:06.707Z,16.98
2019-02-20T08:39:47.323Z,17.08
2019-02-20T08:40:27.939Z,17.04
2019-02-20T08:41:08.557Z,17.04
2019-02-20T08:41:49.169Z,17.12
2019-02-20T08:42:29.913Z,17.21
2019-02-20T08:43:10.523Z,17.14
2019-02-20T08:43:51.138Z,17.16
2019-02-20T08:44:31.737Z,17.18